createdAt,value
2017-05-21T00:00:42.697Z,13.40
2017-05-21T00:03:10.116Z,13.30
2017-05-21T00:05:37.423Z,13.30
2017-05-21T00:08:05.740Z,13.40
2017-05-21T00:10:33.117Z,13.40
2017-05-21T00:13:00.475Z,13.40
2017-05-21T00:15:27.695Z,13.40
2017-05-21T00:17:55.773Z,13.40
2017-05-21T00:20:23.022Z,13.40
2017-05-21T00:22:50.304Z,13.40
2017-05-21T00:25:17.630Z,13.40
2017-05-21T00:27:45.257Z,13.40
2017-05-21T00:33:34.432Z,13.50
2017-05-21T00:36:01.590Z,13.50
2017-05-21T00:38:28.738Z,13.60
2017-05-21T00:40:55.941Z,13.50
2017-05-21T00:43:23.693Z,13.50
2017-05-21T00:45:50.852Z,13.50
2017-05-21T00:48:18.259Z,13.60
2017-05-21T00:50:45.409Z,13.60
2017-05-21T00:53:12.597Z,13.70
2017-05-21T00:55:39.780Z,13.60
2017-05-21T00:58:06.947Z,13.60
2017-05-21T01:00:34.557Z,13.60
2017-05-21T01:03:01.739Z,13.60
2017-05-21T01:05:28.897Z,13.50
2017-05-21T01:07:56.296Z,13.60
2017-05-21T01:10:23.483Z,13.60
2017-05-21T01:12:50.846Z,13.60
2017-05-21T01:15:18.005Z,13.60
2017-05-21T01:17:45.225Z,13.60
2017-05-21T01:20:12.413Z,13.70
2017-05-21T01:22:39.634Z,13.60
2017-05-21T01:25:06.842Z,13.60
2017-05-21T01:27:34.018Z,13.60
2017-05-21T01:30:01.179Z,13.60
2017-05-21T01:32:29.287Z,13.60
2017-05-21T01:35:03.398Z,13.60
2017-05-21T01:37:30.577Z,13.60
2017-05-21T01:39:57.776Z,13.60
2017-05-21T01:42:24.970Z,13.60
2017-05-21T01:44:52.153Z,13.70
2017-05-21T01:47:19.302Z,13.70
2017-05-21T01:49:46.462Z,13.60
2017-05-21T01:52:13.662Z,13.70
2017-05-21T01:54:40.814Z,13.60
2017-05-21T01:57:07.970Z,13.70
2017-05-21T01:59:35.146Z,13.60
2017-05-21T02:02:02.314Z,13.60
2017-05-21T02:04:29.468Z,13.60
2017-05-21T02:06:56.645Z,13.70
2017-05-21T02:09:23.924Z,13.70
2017-05-21T02:11:51.109Z,13.80
2017-05-21T02:14:18.487Z,13.70
2017-05-21T02:16:45.704Z,13.70
2017-05-21T02:19:12.868Z,13.70
2017-05-21T02:21:40.053Z,13.70
2017-05-21T02:24:07.226Z,13.80
2017-05-21T02:26:34.383Z,13.80
2017-05-21T02:29:01.580Z,13.80
2017-05-21T02:31:28.730Z,13.80
2017-05-21T02:33:55.890Z,13.80
2017-05-21T02:36:23.262Z,13.90
2017-05-21T02:38:50.492Z,13.90
2017-05-21T02:41:17.626Z,13.80
2017-05-21T02:43:44.991Z,13.90
2017-05-21T02:46:12.143Z,13.90
2017-05-21T02:48:39.312Z,14.10
2017-05-21T02:51:06.627Z,13.90
2017-05-21T02:53:34.212Z,13.80
2017-05-21T02:56:01.369Z,13.60
2017-05-21T02:58:28.578Z,13.60
2017-05-21T03:00:55.735Z,13.60
2017-05-21T03:03:22.899Z,14.00
2017-05-21T03:05:50.125Z,13.80
2017-05-21T03:08:17.289Z,13.60
2017-05-21T03:10:44.573Z,13.60
2017-05-21T03:13:11.763Z,13.60
2017-05-21T03:15:38.943Z,13.60
2017-05-21T03:18:06.344Z,13.80
2017-05-21T03:20:33.536Z,13.70
2017-05-21T03:23:00.695Z,13.60
2017-05-21T03:25:28.061Z,13.60
2017-05-21T03:27:55.201Z,13.50
2017-05-21T03:30:22.464Z,13.50
2017-05-21T03:32:49.794Z,13.60
2017-05-21T03:35:17.277Z,13.60
2017-05-21T03:37:45.086Z,13.60
2017-05-21T03:40:12.258Z,13.60
2017-05-21T03:42:39.460Z,13.70
2017-05-21T03:45:06.816Z,13.60
2017-05-21T03:47:33.970Z,13.70
2017-05-21T03:50:01.131Z,13.60
2017-05-21T03:52:28.386Z,13.50
2017-05-21T03:54:55.531Z,13.50
2017-05-21T03:57:22.767Z,13.50
2017-05-21T03:59:50.213Z,13.60
2017-05-21T04:02:17.905Z,13.50
2017-05-21T04:04:45.095Z,13.60
2017-05-21T04:07:12.451Z,13.50
2017-05-21T04:09:39.636Z,13.60
2017-05-21T04:12:07.103Z,13.60
2017-05-21T04:14:34.850Z,13.70
2017-05-21T04:20:24.618Z,13.60
2017-05-21T04:22:51.753Z,13.60
2017-05-21T04:25:18.940Z,13.60
2017-05-21T04:27:46.277Z,13.60
2017-05-21T04:30:13.467Z,13.50
2017-05-21T04:32:40.637Z,13.60
2017-05-21T04:35:07.976Z,13.60
2017-05-21T04:37:35.329Z,13.60
2017-05-21T04:40:02.676Z,13.60
2017-05-21T04:42:29.832Z,13.70
2017-05-21T04:44:57.058Z,13.60
2017-05-21T04:47:24.555Z,13.60
2017-05-21T04:49:51.790Z,13.60
2017-05-21T04:52:18.933Z,13.60
2017-05-21T04:54:46.468Z,13.60
2017-05-21T04:57:13.622Z,13.70
2017-05-21T04:59:41.209Z,13.60
2017-05-21T05:02:08.416Z,13.60
2017-05-21T05:04:35.662Z,13.60
2017-05-21T05:07:02.850Z,13.70
2017-05-21T05:09:30.094Z,13.70
2017-05-21T05:11:57.442Z,13.70
2017-05-21T05:14:24.898Z,13.70
2017-05-21T05:16:52.087Z,13.70
2017-05-21T05:19:19.405Z,13.70
2017-05-21T05:21:46.828Z,13.60
2017-05-21T05:24:14.295Z,13.60
2017-05-21T05:26:41.450Z,13.70
2017-05-21T05:29:08.613Z,13.70
2017-05-21T05:31:35.799Z,13.70
2017-05-21T05:34:02.990Z,13.70
2017-05-21T05:36:30.159Z,13.70
2017-05-21T05:38:57.314Z,13.70
2017-05-21T05:41:28.470Z,13.80
2017-05-21T05:43:55.653Z,13.80
2017-05-21T05:46:22.947Z,13.80
2017-05-21T05:48:50.392Z,13.80
2017-05-21T05:51:17.546Z,13.80
2017-05-21T05:53:44.729Z,13.90
2017-05-21T05:56:11.943Z,13.90
2017-05-21T05:58:39.136Z,13.90
2017-05-21T06:01:06.418Z,14.00
2017-05-21T06:03:33.656Z,14.00
2017-05-21T06:06:06.222Z,14.00
2017-05-21T06:08:33.399Z,14.10
2017-05-21T06:11:00.639Z,14.20
2017-05-21T06:13:27.932Z,14.30
2017-05-21T06:15:55.206Z,14.20
2017-05-21T06:18:22.424Z,14.30
2017-05-21T06:20:49.711Z,14.50
2017-05-21T06:23:16.867Z,14.50
2017-05-21T06:25:44.267Z,14.60
2017-05-21T06:28:11.473Z,14.60
2017-05-21T06:30:38.686Z,14.70
2017-05-21T06:33:06.691Z,14.80
2017-05-21T06:35:33.965Z,14.80
2017-05-21T06:38:01.126Z,14.80
2017-05-21T06:40:28.330Z,15.00
2017-05-21T06:42:55.529Z,15.30
2017-05-21T06:45:23.111Z,15.50
2017-05-21T06:47:50.573Z,15.50
2017-05-21T06:50:17.859Z,15.60
2017-05-21T06:52:45.029Z,15.70
2017-05-21T06:55:12.242Z,15.70
2017-05-21T06:57:39.437Z,15.60
2017-05-21T07:00:06.769Z,16.00
2017-05-21T07:02:33.995Z,15.90
2017-05-21T07:05:01.170Z,15.80
2017-05-21T07:07:28.341Z,15.70
2017-05-21T07:09:55.594Z,15.70
2017-05-21T07:12:22.800Z,15.90
2017-05-21T07:14:49.985Z,16.00
2017-05-21T07:17:17.153Z,16.10
2017-05-21T07:19:44.380Z,16.30
2017-05-21T07:22:11.576Z,16.40
2017-05-21T07:24:38.786Z,16.10
2017-05-21T07:27:05.954Z,16.20
2017-05-21T07:29:33.134Z,16.10
2017-05-21T07:32:00.451Z,16.30
2017-05-21T07:34:27.624Z,16.30
2017-05-21T07:36:54.810Z,16.30
2017-05-21T07:39:22.208Z,16.40
2017-05-21T07:41:49.382Z,16.50
2017-05-21T07:44:16.581Z,16.70
2017-05-21T07:46:43.764Z,17.10
2017-05-21T07:49:11.232Z,17.20
2017-05-21T07:51:38.687Z,17.40
2017-05-21T07:54:06.103Z,17.80
2017-05-21T07:56:33.277Z,17.60
2017-05-21T07:59:00.555Z,17.70
2017-05-21T08:01:27.768Z,17.50
2017-05-21T08:03:54.945Z,17.90
2017-05-21T08:06:22.066Z,18.00
2017-05-21T08:08:49.269Z,18.10
2017-05-21T08:11:17.461Z,18.20
2017-05-21T08:13:45.074Z,18.10
2017-05-21T08:16:12.668Z,18.10
2017-05-21T08:18:39.831Z,18.40
2017-05-21T08:21:06.999Z,18.20
2017-05-21T08:23:34.322Z,17.80
2017-05-21T08:26:02.277Z,17.90
2017-05-21T08:28:29.479Z,18.40
2017-05-21T08:30:56.737Z,18.90
2017-05-21T08:33:30.724Z,18.70
2017-05-21T08:35:58.098Z,18.70
2017-05-21T08:38:33.000Z,18.60
2017-05-21T08:41:00.251Z,18.20
2017-05-21T08:43:27.397Z,18.70
2017-05-21T08:45:54.739Z,18.60
2017-05-21T08:48:23.737Z,18.70
2017-05-21T08:50:51.040Z,18.90
2017-05-21T08:53:19.714Z,19.00
2017-05-21T08:55:48.558Z,19.20
2017-05-21T08:58:17.186Z,19.70
2017-05-21T09:00:45.817Z,20.50
2017-05-21T09:03:14.281Z,21.10
2017-05-21T09:05:45.171Z,21.50
2017-05-21T09:08:15.931Z,22.40
2017-05-21T09:10:43.299Z,22.90
2017-05-21T09:13:11.168Z,22.60
2017-05-21T09:15:38.766Z,22.70
2017-05-21T09:18:06.244Z,22.20
2017-05-21T09:20:34.008Z,22.50
2017-05-21T09:23:01.198Z,22.90
2017-05-21T09:25:28.420Z,23.50
2017-05-21T09:27:55.585Z,26.20
2017-05-21T09:30:22.882Z,28.40
2017-05-21T09:32:50.893Z,27.80
2017-05-21T09:35:19.023Z,27.40
2017-05-21T09:37:47.481Z,29.50
2017-05-21T09:40:15.915Z,27.50
2017-05-21T09:42:44.469Z,28.00
2017-05-21T09:45:13.552Z,26.20
2017-05-21T09:47:40.933Z,28.50
2017-05-21T09:50:08.459Z,25.20
2017-05-21T09:52:35.701Z,26.70
2017-05-21T09:55:03.048Z,27.30
2017-05-21T09:57:30.565Z,25.10
2017-05-21T09:59:57.850Z,23.10
2017-05-21T10:02:25.498Z,22.40
2017-05-21T10:04:52.842Z,22.50
2017-05-21T10:07:20.067Z,22.80
2017-05-21T10:09:47.281Z,23.30
2017-05-21T10:12:14.739Z,23.40
2017-05-21T10:14:47.196Z,23.10
2017-05-21T10:17:19.854Z,23.70
2017-05-21T10:19:47.040Z,23.30
2017-05-21T10:22:14.244Z,21.40
2017-05-21T10:24:41.627Z,21.50
2017-05-21T10:27:08.881Z,21.50
2017-05-21T10:29:36.564Z,20.90
2017-05-21T10:32:03.887Z,20.30
2017-05-21T10:34:31.471Z,19.80
2017-05-21T10:36:58.698Z,19.90
2017-05-21T10:39:26.010Z,19.80
2017-05-21T10:41:53.387Z,19.90
2017-05-21T10:44:20.705Z,19.80
2017-05-21T10:46:47.922Z,20.20
2017-05-21T10:49:17.299Z,20.90
2017-05-21T10:51:44.786Z,22.30
2017-05-21T10:54:12.078Z,22.50
2017-05-21T10:56:39.660Z,22.30
2017-05-21T10:59:07.543Z,21.70
2017-05-21T11:01:34.907Z,22.10
2017-05-21T11:04:27.116Z,23.20
2017-05-21T11:06:54.619Z,24.10
2017-05-21T11:10:11.806Z,25.60
2017-05-21T11:12:44.157Z,28.30
2017-05-21T11:15:11.348Z,26.90
2017-05-21T11:17:39.200Z,26.80
2017-05-21T11:20:06.609Z,26.10
2017-05-21T11:22:33.806Z,25.60
2017-05-21T11:25:01.197Z,25.60
2017-05-21T11:27:28.448Z,26.70
2017-05-21T11:29:55.695Z,28.00
2017-05-21T11:32:30.653Z,32.30
2017-05-21T11:34:57.943Z,33.40
2017-05-21T11:37:25.161Z,33.40
2017-05-21T11:39:52.644Z,31.00
2017-05-21T11:42:19.937Z,32.30
2017-05-21T11:44:47.399Z,34.30
2017-05-21T11:47:14.808Z,31.80
2017-05-21T11:49:42.139Z,30.00
2017-05-21T11:52:10.305Z,28.00
2017-05-21T11:54:37.809Z,25.10
2017-05-21T11:57:05.159Z,23.10
2017-05-21T11:59:32.338Z,21.70
2017-05-21T12:02:00.042Z,21.70
2017-05-21T12:04:27.982Z,21.60
2017-05-21T12:06:55.393Z,21.00
2017-05-21T12:09:22.579Z,21.00
2017-05-21T12:11:50.803Z,20.90
2017-05-21T12:14:18.272Z,20.70
2017-05-21T12:17:13.110Z,20.30
2017-05-21T12:19:40.660Z,20.60
2017-05-21T12:22:08.403Z,20.70
2017-05-21T12:24:36.499Z,21.50
2017-05-21T12:27:04.446Z,23.00
2017-05-21T12:29:38.083Z,24.90
2017-05-21T12:32:06.389Z,23.50
2017-05-21T12:34:33.662Z,24.40
2017-05-21T12:37:00.945Z,23.10
2017-05-21T12:39:28.337Z,22.00
2017-05-21T12:41:55.536Z,22.50
2017-05-21T12:44:22.965Z,21.90
2017-05-21T12:46:56.531Z,23.50
2017-05-21T12:52:45.662Z,30.90
2017-05-21T12:55:13.043Z,32.30
2017-05-21T12:57:40.505Z,29.50
2017-05-21T13:00:08.976Z,25.80
2017-05-21T13:02:36.321Z,24.30
2017-05-21T13:05:11.119Z,24.30
2017-05-21T13:07:38.307Z,24.40
2017-05-21T13:10:06.313Z,24.40
2017-05-21T13:12:33.731Z,24.60
2017-05-21T13:15:01.857Z,24.00
2017-05-21T13:17:29.779Z,23.80
2017-05-21T13:19:57.202Z,24.10
2017-05-21T13:22:24.448Z,23.70
2017-05-21T13:24:52.118Z,23.80
2017-05-21T13:27:27.313Z,23.30
2017-05-21T13:29:55.497Z,23.20
2017-05-21T13:32:23.010Z,23.40
2017-05-21T13:34:50.323Z,22.70
2017-05-21T13:37:17.873Z,22.80
2017-05-21T13:39:45.053Z,22.60
2017-05-21T13:42:12.266Z,22.80
2017-05-21T13:44:39.932Z,22.80
2017-05-21T13:47:07.147Z,22.50
2017-05-21T13:49:34.574Z,22.50
2017-05-21T13:52:01.959Z,22.60
2017-05-21T13:54:35.397Z,22.20
2017-05-21T13:57:02.734Z,22.00
2017-05-21T13:59:30.380Z,22.10
2017-05-21T14:01:57.657Z,22.10
2017-05-21T14:04:24.842Z,22.30
2017-05-21T14:06:53.131Z,22.40
2017-05-21T14:09:21.202Z,22.20
2017-05-21T14:11:49.224Z,22.10
2017-05-21T14:14:16.501Z,21.90
2017-05-21T14:16:43.697Z,21.60
2017-05-21T14:21:46.034Z,22.00
2017-05-21T14:24:13.492Z,21.90
2017-05-21T14:26:46.248Z,21.80
2017-05-21T14:29:13.399Z,21.90
2017-05-21T14:31:40.701Z,22.00
2017-05-21T14:34:08.046Z,21.70
2017-05-21T14:36:35.543Z,21.80
2017-05-21T14:39:03.779Z,21.70
2017-05-21T14:41:31.472Z,21.80
2017-05-21T14:43:59.428Z,21.80
2017-05-21T14:46:26.625Z,21.80
2017-05-21T14:48:54.139Z,21.60
2017-05-21T14:51:22.324Z,21.50
2017-05-21T14:53:49.703Z,21.40
2017-05-21T14:56:16.987Z,21.30
2017-05-21T14:58:44.445Z,21.30
2017-05-21T15:01:12.086Z,21.30
2017-05-21T15:03:39.353Z,21.10
2017-05-21T15:06:07.269Z,21.10
2017-05-21T15:08:34.542Z,21.30
2017-05-21T15:11:02.242Z,21.40
2017-05-21T15:13:29.669Z,21.40
2017-05-21T15:15:56.848Z,21.40
2017-05-21T15:18:24.881Z,22.10
2017-05-21T15:20:52.498Z,22.70
2017-05-21T15:23:19.732Z,22.30
2017-05-21T15:25:47.091Z,23.80
2017-05-21T15:28:14.464Z,22.50
2017-05-21T15:30:43.296Z,21.70
2017-05-21T15:33:10.596Z,22.20
2017-05-21T15:35:37.875Z,21.60
2017-05-21T15:38:05.069Z,20.60
2017-05-21T15:40:32.441Z,20.40
2017-05-21T15:42:59.616Z,20.20
2017-05-21T15:45:26.839Z,20.10
2017-05-21T15:47:59.985Z,20.00
2017-05-21T15:50:29.016Z,20.00
2017-05-21T15:52:56.458Z,20.00
2017-05-21T15:55:32.815Z,19.90
2017-05-21T15:58:00.071Z,19.70
2017-05-21T16:00:27.268Z,19.80
2017-05-21T16:03:00.559Z,19.70
2017-05-21T16:06:02.714Z,19.50
2017-05-21T16:08:42.488Z,19.50
2017-05-21T16:11:09.703Z,19.50
2017-05-21T16:13:36.904Z,19.60
2017-05-21T16:16:04.405Z,19.40
2017-05-21T16:18:31.624Z,19.40
2017-05-21T16:20:58.890Z,19.40
2017-05-21T16:23:26.268Z,19.40
2017-05-21T16:25:53.490Z,19.40
2017-05-21T16:28:20.782Z,19.40
2017-05-21T16:31:25.392Z,19.40
2017-05-21T16:33:53.336Z,19.40
2017-05-21T16:36:20.962Z,19.40
2017-05-21T16:42:10.655Z,19.40
2017-05-21T16:44:37.844Z,19.30
2017-05-21T16:47:09.571Z,19.20
2017-05-21T16:49:36.765Z,19.20
2017-05-21T16:52:04.009Z,19.10
2017-05-21T16:54:31.271Z,19.10
2017-05-21T16:56:59.193Z,19.10
2017-05-21T16:59:27.234Z,19.10
2017-05-21T17:01:54.605Z,19.00
2017-05-21T17:04:22.082Z,19.00
2017-05-21T17:06:49.489Z,18.90
2017-05-21T17:09:16.715Z,18.90
2017-05-21T17:11:44.705Z,18.80
2017-05-21T17:14:12.061Z,18.70
2017-05-21T17:16:39.266Z,18.70
2017-05-21T17:19:06.508Z,18.60
2017-05-21T17:21:35.974Z,18.60
2017-05-21T17:24:03.490Z,18.50
2017-05-21T17:26:30.934Z,18.40
2017-05-21T17:28:59.001Z,18.40
2017-05-21T17:31:26.429Z,18.30
2017-05-21T17:33:54.082Z,18.20
2017-05-21T17:36:21.494Z,18.20
2017-05-21T17:38:48.807Z,18.10
2017-05-21T17:41:16.130Z,18.10
2017-05-21T17:43:43.763Z,18.10
2017-05-21T17:46:11.009Z,17.90
2017-05-21T17:48:38.434Z,17.90
2017-05-21T17:51:05.673Z,17.90
2017-05-21T17:53:33.044Z,17.80
2017-05-21T17:56:00.257Z,17.80
2017-05-21T17:58:27.562Z,17.80
2017-05-21T18:00:54.981Z,17.70
2017-05-21T18:03:22.284Z,17.60
2017-05-21T18:05:49.468Z,18.00
2017-05-21T18:08:16.717Z,17.80
2017-05-21T18:10:44.389Z,17.60
2017-05-21T18:13:11.602Z,17.60
2017-05-21T18:15:38.933Z,17.60
2017-05-21T18:18:06.280Z,17.60
2017-05-21T18:20:33.799Z,17.50
2017-05-21T18:23:01.046Z,17.40
2017-05-21T18:25:28.403Z,17.40
2017-05-21T18:27:55.635Z,17.40
2017-05-21T18:30:23.070Z,17.30
2017-05-21T18:32:50.516Z,17.30
2017-05-21T18:35:17.784Z,17.20
2017-05-21T18:37:45.327Z,17.20
2017-05-21T18:40:12.790Z,17.20
2017-05-21T18:42:40.018Z,17.10
2017-05-21T18:45:07.187Z,17.10
2017-05-21T18:47:34.630Z,17.10
2017-05-21T18:50:01.878Z,17.00
2017-05-21T18:52:29.274Z,17.00
2017-05-21T18:54:57.163Z,17.00
2017-05-21T18:57:24.426Z,17.00
2017-05-21T18:59:51.780Z,16.90
2017-05-21T19:02:19.341Z,16.90
2017-05-21T19:04:46.625Z,16.90
2017-05-21T19:07:13.959Z,16.90
2017-05-21T19:09:41.222Z,17.10
2017-05-21T19:12:08.471Z,17.30
2017-05-21T19:14:35.937Z,17.10
2017-05-21T19:17:03.285Z,17.00
2017-05-21T19:19:30.520Z,16.90
2017-05-21T19:21:57.856Z,16.90
2017-05-21T19:24:25.310Z,16.90
2017-05-21T19:26:52.641Z,16.80
2017-05-21T19:29:19.820Z,16.80
2017-05-21T19:31:47.019Z,16.90
2017-05-21T19:34:14.257Z,16.80
2017-05-21T19:36:41.816Z,16.80
2017-05-21T19:39:09.414Z,16.80
2017-05-21T19:41:36.863Z,16.80
2017-05-21T19:44:04.117Z,16.80
2017-05-21T19:46:31.321Z,16.70
2017-05-21T19:48:58.802Z,16.70
2017-05-21T19:51:26.299Z,16.70
2017-05-21T19:53:53.891Z,16.70
2017-05-21T19:56:21.119Z,16.70
2017-05-21T19:58:48.366Z,16.60
2017-05-21T20:01:15.587Z,16.70
2017-05-21T20:03:43.028Z,16.60
2017-05-21T20:06:10.288Z,16.70
2017-05-21T20:08:37.561Z,16.60
2017-05-21T20:11:04.839Z,16.60
2017-05-21T20:13:32.317Z,16.60
2017-05-21T20:15:59.573Z,16.60
2017-05-21T20:18:26.878Z,16.60
2017-05-21T20:20:54.219Z,16.50
2017-05-21T20:23:21.461Z,16.60
2017-05-21T20:25:48.973Z,16.60
2017-05-21T20:28:16.294Z,16.50
2017-05-21T20:30:43.542Z,16.40
2017-05-21T20:33:10.919Z,16.40
2017-05-21T20:35:44.974Z,16.40
2017-05-21T20:38:12.250Z,16.40
2017-05-21T20:40:41.208Z,16.40
2017-05-21T20:43:08.484Z,16.40
2017-05-21T20:45:36.886Z,16.40
2017-05-21T20:48:04.090Z,16.30
2017-05-21T20:50:31.814Z,16.40
2017-05-21T20:52:59.254Z,16.60
2017-05-21T20:55:26.683Z,16.50
2017-05-21T20:58:19.522Z,16.40
2017-05-21T21:00:47.315Z,16.40
2017-05-21T21:03:15.292Z,16.40
2017-05-21T21:05:42.623Z,16.40
2017-05-21T21:08:09.773Z,16.40
2017-05-21T21:10:36.986Z,16.40
2017-05-21T21:13:04.399Z,16.30
2017-05-21T21:15:33.732Z,16.30
2017-05-21T21:18:01.187Z,16.40
2017-05-21T21:20:29.688Z,16.40
2017-05-21T21:22:56.879Z,16.30
2017-05-21T21:25:24.337Z,16.30
2017-05-21T21:27:51.562Z,16.30
2017-05-21T21:30:18.724Z,16.40
2017-05-21T21:32:46.056Z,16.30
2017-05-21T21:35:13.351Z,16.20
2017-05-21T21:37:40.982Z,16.20
2017-05-21T21:40:08.169Z,16.20
2017-05-21T21:42:35.658Z,16.10
2017-05-21T21:45:03.263Z,16.10
2017-05-21T21:47:30.558Z,16.10
2017-05-21T21:49:57.734Z,16.10
2017-05-21T21:52:25.098Z,16.00
2017-05-21T21:54:52.849Z,16.10
2017-05-21T21:57:20.336Z,16.10
2017-05-21T21:59:47.507Z,16.10
2017-05-21T22:02:14.717Z,16.00
2017-05-21T22:04:41.917Z,16.00
2017-05-21T22:07:09.117Z,16.10
2017-05-21T22:09:41.666Z,16.10
2017-05-21T22:12:08.851Z,16.00
2017-05-21T22:14:36.038Z,15.90
2017-05-21T22:17:03.354Z,15.90
2017-05-21T22:19:30.536Z,15.90
2017-05-21T22:21:57.851Z,15.90
2017-05-21T22:24:25.542Z,15.90
2017-05-21T22:26:58.023Z,15.90
2017-05-21T22:29:25.239Z,15.90
2017-05-21T22:31:52.692Z,15.90
2017-05-21T22:34:19.885Z,15.80
2017-05-21T22:36:47.066Z,15.70
2017-05-21T22:39:14.777Z,15.80
2017-05-21T22:41:41.983Z,15.80
2017-05-21T22:44:09.210Z,15.70
2017-05-21T22:46:36.611Z,15.60
2017-05-21T22:49:04.261Z,15.40
2017-05-21T22:51:31.853Z,15.50
2017-05-21T22:53:59.126Z,15.60
2017-05-21T22:56:26.626Z,15.70
2017-05-21T22:58:53.863Z,15.70
2017-05-21T23:01:21.237Z,15.80
2017-05-21T23:03:48.406Z,15.70
2017-05-21T23:06:15.585Z,15.70
2017-05-21T23:08:43.120Z,15.70
2017-05-21T23:11:10.291Z,15.60
2017-05-21T23:13:37.478Z,15.70
2017-05-21T23:16:05.048Z,15.70
2017-05-21T23:18:32.496Z,15.70
2017-05-21T23:20:59.723Z,15.70
2017-05-21T23:23:27.316Z,15.60
2017-05-21T23:25:54.533Z,15.50
2017-05-21T23:28:21.709Z,15.50
2017-05-21T23:30:48.963Z,15.40
2017-05-21T23:33:16.222Z,15.20
2017-05-21T23:35:43.530Z,15.30
2017-05-21T23:38:10.730Z,15.30
2017-05-21T23:40:45.327Z,15.30
2017-05-21T23:43:12.529Z,15.40
2017-05-21T23:45:39.714Z,15.40
2017-05-21T23:48:07.075Z,15.30
2017-05-21T23:50:34.300Z,15.10
2017-05-21T23:53:01.451Z,15.20
2017-05-21T23:55:28.671Z,15.30
2017-05-21T23:57:56.115Z,15.20
